UAL128 LFPO-LFMN
Flight info
| Callsign | UAL128 |
|---|---|
| Flight time | 1h 9m |
| Altitude | 35000 |
| Route | LATRA DCT LAMUT DCT UTUVA DCT LERGA DCT LIQID DCT LATAM DCT TUNUR DCT NISAR |
| Aircraft | B737/M-SDE2E3FGHIRWXY/LB1 |
Departure
| Time | 2026-05-05 23:41 |
|---|---|
| Airport | Paris-Orly Airport (LFPO) |
Arrival
| Time | 2026-05-06 00:51 |
|---|---|
| Airport | Nice-Côte d'Azur Airport (LFMN) |
| Time | Latitude | Longitude | Altitude | Speed | Heading |
|---|---|---|---|---|---|
| 2026-05-05 22:49 | 48.72689 | 2.36592 | 290 ft | 0 kts | 4° |
| 2026-05-05 23:31 | 48.72687 | 2.36591 | 290 ft | 3 kts | 4° |
| 2026-05-05 23:32 | 48.72661 | 2.36588 | 295 ft | 4 kts | 6° |
| 2026-05-05 23:32 | 48.72634 | 2.36585 | 290 ft | 4 kts | 359° |
| 2026-05-05 23:32 | 48.72608 | 2.36588 | 290 ft | 4 kts | 343° |
| 2026-05-05 23:32 | 48.72585 | 2.36607 | 294 ft | 4 kts | 304° |
| 2026-05-05 23:33 | 48.72580 | 2.36635 | 296 ft | 1 kts | 253° |
| 2026-05-05 23:35 | 48.72563 | 2.36616 | 290 ft | 7 kts | 195° |
| 2026-05-05 23:35 | 48.72517 | 2.36594 | 294 ft | 7 kts | 207° |
| 2026-05-05 23:35 | 48.72477 | 2.36509 | 293 ft | 17 kts | 250° |
| 2026-05-05 23:36 | 48.72442 | 2.36339 | 294 ft | 17 kts | 254° |
| 2026-05-05 23:36 | 48.72411 | 2.36172 | 292 ft | 16 kts | 254° |
| 2026-05-05 23:36 | 48.72382 | 2.36012 | 294 ft | 15 kts | 253° |
| 2026-05-05 23:36 | 48.72354 | 2.35859 | 294 ft | 15 kts | 254° |
| 2026-05-05 23:37 | 48.72327 | 2.35711 | 292 ft | 14 kts | 254° |
| 2026-05-05 23:37 | 48.72271 | 2.35608 | 292 ft | 14 kts | 189° |
| 2026-05-05 23:37 | 48.72179 | 2.35621 | 293 ft | 13 kts | 168° |
| 2026-05-05 23:37 | 48.72094 | 2.35661 | 293 ft | 13 kts | 152° |
| 2026-05-05 23:38 | 48.72031 | 2.35753 | 291 ft | 13 kts | 123° |
| 2026-05-05 23:38 | 48.71976 | 2.35855 | 291 ft | 12 kts | 142° |
| 2026-05-05 23:38 | 48.71961 | 2.35971 | 292 ft | 8 kts | 70° |
| 2026-05-05 23:38 | 48.71962 | 2.35974 | 291 ft | 0 kts | 70° |
| 2026-05-05 23:41 | 48.72011 | 2.36234 | 291 ft | 68 kts | 75° |
| 2026-05-05 23:41 | 48.72217 | 2.37347 | 291 ft | 148 kts | 73° |
| 2026-05-05 23:41 | 48.72551 | 2.39073 | 698 ft | 181 kts | 72° |
| 2026-05-05 23:41 | 48.72882 | 2.40890 | 1873 ft | 172 kts | 74° |
| 2026-05-05 23:42 | 48.73190 | 2.42636 | 2934 ft | 176 kts | 73° |
| 2026-05-05 23:42 | 48.73553 | 2.44598 | 3340 ft | 211 kts | 72° |
| 2026-05-05 23:42 | 48.73976 | 2.46892 | 3656 ft | 239 kts | 74° |
| 2026-05-05 23:42 | 48.74200 | 2.49451 | 4318 ft | 252 kts | 86° |
| 2026-05-05 23:43 | 48.74274 | 2.52227 | 4849 ft | 272 kts | 88° |
| 2026-05-05 23:43 | 48.74331 | 2.55081 | 5789 ft | 278 kts | 90° |
| 2026-05-05 23:43 | 48.73905 | 2.57936 | 6869 ft | 280 kts | 118° |
| 2026-05-05 23:43 | 48.72668 | 2.60196 | 7880 ft | 282 kts | 146° |
| 2026-05-05 23:44 | 48.70892 | 2.61424 | 8853 ft | 283 kts | 169° |
| 2026-05-05 23:44 | 48.68943 | 2.61888 | 9832 ft | 285 kts | 175° |
| 2026-05-05 23:44 | 48.66933 | 2.62256 | 10518 ft | 302 kts | 175° |
| 2026-05-05 23:44 | 48.64742 | 2.62515 | 10736 ft | 330 kts | 185° |
| 2026-05-05 23:45 | 48.62472 | 2.61612 | 11137 ft | 346 kts | 206° |
| 2026-05-05 23:45 | 48.60307 | 2.59958 | 11955 ft | 351 kts | 208° |
| 2026-05-05 23:45 | 48.58138 | 2.58228 | 12840 ft | 354 kts | 208° |
| 2026-05-05 23:45 | 48.55947 | 2.56482 | 13693 ft | 358 kts | 208° |
| 2026-05-05 23:46 | 48.53719 | 2.54728 | 14477 ft | 364 kts | 208° |
| 2026-05-05 23:46 | 48.51458 | 2.52967 | 15282 ft | 368 kts | 208° |
| 2026-05-05 23:46 | 48.49170 | 2.51199 | 16055 ft | 372 kts | 207° |
| 2026-05-05 23:46 | 48.46853 | 2.49415 | 16788 ft | 376 kts | 207° |
| 2026-05-05 23:47 | 48.44437 | 2.47831 | 17480 ft | 382 kts | 199° |
| 2026-05-05 23:47 | 48.41886 | 2.46655 | 18202 ft | 386 kts | 196° |
| 2026-05-05 23:47 | 48.39280 | 2.45593 | 18870 ft | 390 kts | 195° |
| 2026-05-05 23:47 | 48.36654 | 2.44497 | 19535 ft | 394 kts | 196° |
| 2026-05-05 23:48 | 48.34017 | 2.43336 | 20189 ft | 397 kts | 197° |
| 2026-05-05 23:48 | 48.31354 | 2.42135 | 20819 ft | 401 kts | 196° |
| 2026-05-05 23:48 | 48.28592 | 2.41530 | 21409 ft | 404 kts | 179° |
| 2026-05-05 23:48 | 48.25815 | 2.42224 | 22017 ft | 407 kts | 162° |
| 2026-05-05 23:49 | 48.23138 | 2.43634 | 22623 ft | 410 kts | 160° |
| 2026-05-05 23:49 | 48.20456 | 2.45134 | 23193 ft | 413 kts | 159° |
| 2026-05-05 23:49 | 48.17760 | 2.46637 | 23728 ft | 416 kts | 160° |
| 2026-05-05 23:49 | 48.15029 | 2.48128 | 24246 ft | 419 kts | 160° |
| 2026-05-05 23:50 | 48.12275 | 2.49601 | 24769 ft | 421 kts | 160° |
| 2026-05-05 23:50 | 48.09505 | 2.51067 | 25251 ft | 423 kts | 160° |
| 2026-05-05 23:50 | 48.06716 | 2.52522 | 25698 ft | 427 kts | 161° |
| 2026-05-05 23:50 | 48.03887 | 2.53936 | 26125 ft | 430 kts | 161° |
| 2026-05-05 23:51 | 48.01044 | 2.55329 | 26559 ft | 432 kts | 161° |
| 2026-05-05 23:51 | 47.98171 | 2.56727 | 26984 ft | 435 kts | 162° |
| 2026-05-05 23:51 | 47.95290 | 2.58130 | 27429 ft | 436 kts | 162° |
| 2026-05-05 23:51 | 47.92401 | 2.59539 | 27835 ft | 438 kts | 162° |
| 2026-05-05 23:52 | 47.89493 | 2.60960 | 28197 ft | 441 kts | 162° |
| 2026-05-05 23:52 | 47.86575 | 2.62384 | 28552 ft | 443 kts | 162° |
| 2026-05-05 23:52 | 47.83649 | 2.63812 | 28864 ft | 444 kts | 162° |
| 2026-05-05 23:52 | 47.80738 | 2.65239 | 29148 ft | 447 kts | 162° |
| 2026-05-05 23:53 | 47.77785 | 2.66687 | 29468 ft | 448 kts | 162° |
| 2026-05-05 23:53 | 47.74793 | 2.68151 | 29908 ft | 446 kts | 162° |
| 2026-05-05 23:53 | 47.71855 | 2.69585 | 30426 ft | 443 kts | 162° |
| 2026-05-05 23:53 | 47.68965 | 2.70998 | 30920 ft | 442 kts | 162° |
| 2026-05-05 23:54 | 47.66049 | 2.72415 | 31332 ft | 441 kts | 162° |
| 2026-05-05 23:54 | 47.63126 | 2.73832 | 31682 ft | 442 kts | 162° |
| 2026-05-05 23:54 | 47.60199 | 2.75251 | 32012 ft | 442 kts | 162° |
| 2026-05-05 23:54 | 47.57278 | 2.76666 | 32333 ft | 442 kts | 162° |
| 2026-05-05 23:55 | 47.54353 | 2.78082 | 32688 ft | 442 kts | 162° |
| 2026-05-05 23:55 | 47.51432 | 2.79495 | 33021 ft | 442 kts | 163° |
| 2026-05-05 23:55 | 47.48510 | 2.80906 | 33367 ft | 441 kts | 163° |
| 2026-05-05 23:55 | 47.45595 | 2.82312 | 33676 ft | 441 kts | 163° |
| 2026-05-05 23:56 | 47.42672 | 2.83721 | 33948 ft | 442 kts | 163° |
| 2026-05-05 23:56 | 47.39746 | 2.85129 | 34244 ft | 442 kts | 163° |
| 2026-05-05 23:56 | 47.36828 | 2.86532 | 34566 ft | 441 kts | 163° |
| 2026-05-05 23:56 | 47.33907 | 2.87934 | 34831 ft | 442 kts | 163° |
| 2026-05-05 23:57 | 47.28016 | 2.90757 | 34881 ft | 447 kts | 163° |
| 2026-05-05 23:57 | 47.22123 | 2.93577 | 34868 ft | 442 kts | 163° |
| 2026-05-05 23:58 | 47.16283 | 2.96364 | 34885 ft | 440 kts | 163° |
| 2026-05-05 23:58 | 47.10466 | 2.99117 | 34879 ft | 439 kts | 165° |
| 2026-05-05 23:59 | 47.04606 | 3.01573 | 34884 ft | 438 kts | 166° |
| 2026-05-05 23:59 | 46.98725 | 3.03927 | 34887 ft | 437 kts | 166° |
| 2026-05-06 00:00 | 46.92855 | 3.06299 | 34892 ft | 438 kts | 166° |
| 2026-05-06 00:00 | 46.86992 | 3.08689 | 34890 ft | 438 kts | 166° |
| 2026-05-06 00:01 | 46.81146 | 3.11077 | 34890 ft | 439 kts | 166° |
| 2026-05-06 00:01 | 46.75257 | 3.13479 | 34890 ft | 440 kts | 166° |
| 2026-05-06 00:02 | 46.69355 | 3.15881 | 34887 ft | 440 kts | 166° |
| 2026-05-06 00:02 | 46.63451 | 3.18278 | 34890 ft | 440 kts | 166° |
| 2026-05-06 00:03 | 46.57551 | 3.20666 | 34888 ft | 440 kts | 167° |
| 2026-05-06 00:03 | 46.51639 | 3.23052 | 34890 ft | 441 kts | 167° |
| 2026-05-06 00:04 | 46.45732 | 3.25434 | 34887 ft | 440 kts | 167° |
| 2026-05-06 00:04 | 46.39831 | 3.27808 | 34889 ft | 440 kts | 167° |
| 2026-05-06 00:05 | 46.31002 | 3.31351 | 34886 ft | 438 kts | 167° |
| 2026-05-06 00:06 | 46.25132 | 3.33697 | 34890 ft | 438 kts | 167° |
| 2026-05-06 00:06 | 46.19261 | 3.36039 | 34887 ft | 437 kts | 167° |
| 2026-05-06 00:07 | 46.13401 | 3.38372 | 34886 ft | 436 kts | 167° |
| 2026-05-06 00:07 | 46.07550 | 3.40698 | 34890 ft | 436 kts | 167° |
| 2026-05-06 00:08 | 46.01710 | 3.43014 | 34888 ft | 435 kts | 167° |
| 2026-05-06 00:08 | 45.95874 | 3.45323 | 34890 ft | 435 kts | 168° |
| 2026-05-06 00:09 | 45.90041 | 3.47625 | 34891 ft | 434 kts | 168° |
| 2026-05-06 00:09 | 45.84217 | 3.49946 | 34884 ft | 435 kts | 168° |
| 2026-05-06 00:10 | 45.78419 | 3.52445 | 34887 ft | 435 kts | 167° |
| 2026-05-06 00:10 | 45.72624 | 3.54976 | 34890 ft | 435 kts | 167° |
| 2026-05-06 00:11 | 45.66825 | 3.57483 | 34894 ft | 436 kts | 167° |
| 2026-05-06 00:11 | 45.61053 | 3.59959 | 34886 ft | 436 kts | 167° |
| 2026-05-06 00:12 | 45.55196 | 3.62463 | 34887 ft | 437 kts | 167° |
| 2026-05-06 00:12 | 45.49415 | 3.64930 | 34893 ft | 437 kts | 167° |
| 2026-05-06 00:13 | 45.43591 | 3.67412 | 34890 ft | 437 kts | 167° |
| 2026-05-06 00:13 | 45.37762 | 3.69889 | 34887 ft | 437 kts | 167° |
| 2026-05-06 00:14 | 45.31943 | 3.72358 | 34884 ft | 437 kts | 167° |
| 2026-05-06 00:14 | 45.26394 | 3.75937 | 34898 ft | 448 kts | 148° |
| 2026-05-06 00:14 | 45.24039 | 3.78870 | 34883 ft | 455 kts | 137° |
| 2026-05-06 00:15 | 45.22125 | 3.82488 | 34898 ft | 462 kts | 128° |
| 2026-05-06 00:15 | 45.19317 | 3.88938 | 34890 ft | 463 kts | 126° |
| 2026-05-06 00:16 | 45.15909 | 3.96680 | 34891 ft | 462 kts | 128° |
| 2026-05-06 00:16 | 45.12416 | 4.04329 | 34883 ft | 462 kts | 129° |
| 2026-05-06 00:17 | 45.08905 | 4.11949 | 34886 ft | 462 kts | 129° |
| 2026-05-06 00:17 | 45.05399 | 4.19564 | 34890 ft | 462 kts | 129° |
| 2026-05-06 00:18 | 45.01628 | 4.26847 | 34895 ft | 454 kts | 138° |
| 2026-05-06 00:18 | 44.97339 | 4.33386 | 34894 ft | 453 kts | 140° |
| 2026-05-06 00:19 | 44.93018 | 4.39887 | 34901 ft | 455 kts | 139° |
| 2026-05-06 00:19 | 44.88719 | 4.46427 | 34890 ft | 455 kts | 139° |
| 2026-05-06 00:20 | 44.84428 | 4.52984 | 34893 ft | 454 kts | 139° |
| 2026-05-06 00:20 | 44.80143 | 4.59520 | 34909 ft | 455 kts | 139° |
| 2026-05-06 00:21 | 44.75841 | 4.66064 | 34891 ft | 455 kts | 140° |
| 2026-05-06 00:21 | 44.71539 | 4.72594 | 34896 ft | 455 kts | 140° |
| 2026-05-06 00:22 | 44.67265 | 4.79066 | 34908 ft | 454 kts | 140° |
| 2026-05-06 00:22 | 44.62972 | 4.85576 | 34903 ft | 455 kts | 139° |
| 2026-05-06 00:23 | 44.58795 | 4.92242 | 34896 ft | 453 kts | 138° |
| 2026-05-06 00:23 | 44.54686 | 4.98855 | 34904 ft | 448 kts | 139° |
| 2026-05-06 00:24 | 44.50551 | 5.05429 | 34151 ft | 453 kts | 139° |
| 2026-05-06 00:24 | 44.48480 | 5.08719 | 33698 ft | 446 kts | 139° |
| 2026-05-06 00:24 | 44.46459 | 5.11951 | 33382 ft | 436 kts | 140° |
| 2026-05-06 00:24 | 44.44477 | 5.15118 | 33063 ft | 429 kts | 140° |
| 2026-05-06 00:25 | 44.42498 | 5.18263 | 32763 ft | 433 kts | 140° |
| 2026-05-06 00:25 | 44.40497 | 5.21436 | 32440 ft | 437 kts | 140° |
| 2026-05-06 00:25 | 44.38492 | 5.24621 | 32100 ft | 435 kts | 140° |
| 2026-05-06 00:25 | 44.36441 | 5.27682 | 31694 ft | 427 kts | 147° |
| 2026-05-06 00:26 | 44.34141 | 5.30313 | 31221 ft | 427 kts | 151° |
| 2026-05-06 00:26 | 44.31766 | 5.32812 | 30730 ft | 427 kts | 152° |
| 2026-05-06 00:26 | 44.29403 | 5.35275 | 30233 ft | 421 kts | 152° |
| 2026-05-06 00:26 | 44.27082 | 5.37732 | 29759 ft | 417 kts | 152° |
| 2026-05-06 00:27 | 44.24789 | 5.40191 | 29308 ft | 414 kts | 151° |
| 2026-05-06 00:27 | 44.22521 | 5.42641 | 28820 ft | 411 kts | 151° |
| 2026-05-06 00:27 | 44.20282 | 5.45073 | 28359 ft | 406 kts | 150° |
| 2026-05-06 00:27 | 44.18076 | 5.47471 | 27908 ft | 399 kts | 150° |
| 2026-05-06 00:28 | 44.15910 | 5.49825 | 27434 ft | 390 kts | 150° |
| 2026-05-06 00:28 | 44.13788 | 5.52126 | 27031 ft | 383 kts | 150° |
| 2026-05-06 00:28 | 44.11733 | 5.54355 | 26602 ft | 377 kts | 149° |
| 2026-05-06 00:28 | 44.09677 | 5.56579 | 26178 ft | 372 kts | 149° |
| 2026-05-06 00:29 | 44.07648 | 5.58769 | 25754 ft | 367 kts | 149° |
| 2026-05-06 00:29 | 44.05638 | 5.60936 | 25337 ft | 363 kts | 149° |
| 2026-05-06 00:29 | 44.03655 | 5.63073 | 24926 ft | 359 kts | 148° |
| 2026-05-06 00:29 | 44.01693 | 5.65187 | 24523 ft | 356 kts | 148° |
| 2026-05-06 00:30 | 43.99745 | 5.67283 | 24121 ft | 352 kts | 147° |
| 2026-05-06 00:30 | 43.97817 | 5.69356 | 23727 ft | 349 kts | 147° |
| 2026-05-06 00:30 | 43.95904 | 5.71413 | 23337 ft | 346 kts | 147° |
| 2026-05-06 00:30 | 43.94001 | 5.73457 | 22944 ft | 346 kts | 147° |
| 2026-05-06 00:31 | 43.92101 | 5.75496 | 22558 ft | 345 kts | 147° |
| 2026-05-06 00:31 | 43.90202 | 5.77532 | 22167 ft | 346 kts | 147° |
| 2026-05-06 00:31 | 43.88298 | 5.79572 | 21776 ft | 346 kts | 147° |
| 2026-05-06 00:31 | 43.86389 | 5.81616 | 21389 ft | 346 kts | 147° |
| 2026-05-06 00:32 | 43.84485 | 5.83652 | 20993 ft | 346 kts | 147° |
| 2026-05-06 00:32 | 43.82579 | 5.85686 | 20601 ft | 346 kts | 147° |
| 2026-05-06 00:32 | 43.80677 | 5.87714 | 20205 ft | 344 kts | 147° |
| 2026-05-06 00:32 | 43.78787 | 5.89729 | 19815 ft | 340 kts | 147° |
| 2026-05-06 00:33 | 43.76928 | 5.91711 | 19430 ft | 335 kts | 147° |
| 2026-05-06 00:33 | 43.75096 | 5.93663 | 19042 ft | 330 kts | 147° |
| 2026-05-06 00:33 | 43.73285 | 5.95589 | 18680 ft | 328 kts | 147° |
| 2026-05-06 00:33 | 43.71479 | 5.97507 | 18307 ft | 326 kts | 147° |
| 2026-05-06 00:34 | 43.69685 | 5.99410 | 17941 ft | 324 kts | 147° |
| 2026-05-06 00:34 | 43.67900 | 6.01304 | 17572 ft | 323 kts | 147° |
| 2026-05-06 00:34 | 43.66126 | 6.03185 | 17206 ft | 321 kts | 147° |
| 2026-05-06 00:34 | 43.64357 | 6.05059 | 16843 ft | 320 kts | 147° |
| 2026-05-06 00:35 | 43.62598 | 6.06921 | 16480 ft | 318 kts | 147° |
| 2026-05-06 00:35 | 43.60852 | 6.08775 | 16127 ft | 317 kts | 144° |
| 2026-05-06 00:35 | 43.59380 | 6.11069 | 15753 ft | 325 kts | 126° |
| 2026-05-06 00:35 | 43.58438 | 6.13921 | 15416 ft | 328 kts | 116° |
| 2026-05-06 00:36 | 43.57635 | 6.16869 | 15036 ft | 328 kts | 115° |
| 2026-05-06 00:36 | 43.56854 | 6.19825 | 14677 ft | 328 kts | 115° |
| 2026-05-06 00:36 | 43.56069 | 6.22777 | 14320 ft | 328 kts | 115° |
| 2026-05-06 00:36 | 43.55274 | 6.25725 | 13933 ft | 326 kts | 115° |
| 2026-05-06 00:37 | 43.54500 | 6.28575 | 13567 ft | 317 kts | 115° |
| 2026-05-06 00:37 | 43.53729 | 6.31386 | 13224 ft | 312 kts | 115° |
| 2026-05-06 00:37 | 43.52955 | 6.34188 | 12918 ft | 309 kts | 115° |
| 2026-05-06 00:37 | 43.52205 | 6.36904 | 12545 ft | 299 kts | 115° |
| 2026-05-06 00:38 | 43.51484 | 6.39512 | 12301 ft | 284 kts | 115° |
| 2026-05-06 00:38 | 43.50790 | 6.42016 | 12009 ft | 279 kts | 115° |
| 2026-05-06 00:38 | 43.49850 | 6.44315 | 11706 ft | 274 kts | 135° |
| 2026-05-06 00:38 | 43.48536 | 6.46219 | 11443 ft | 276 kts | 137° |
| 2026-05-06 00:39 | 43.47196 | 6.48114 | 11129 ft | 276 kts | 137° |
| 2026-05-06 00:39 | 43.45856 | 6.50017 | 10820 ft | 277 kts | 137° |
| 2026-05-06 00:39 | 43.44516 | 6.51930 | 10504 ft | 278 kts | 136° |
| 2026-05-06 00:39 | 43.43182 | 6.53842 | 10194 ft | 277 kts | 136° |
| 2026-05-06 00:40 | 43.41851 | 6.55756 | 9877 ft | 276 kts | 136° |
| 2026-05-06 00:40 | 43.40526 | 6.57661 | 9605 ft | 273 kts | 136° |
| 2026-05-06 00:40 | 43.39229 | 6.59530 | 9298 ft | 266 kts | 136° |
| 2026-05-06 00:40 | 43.38018 | 6.61395 | 8962 ft | 258 kts | 124° |
| 2026-05-06 00:41 | 43.37451 | 6.63651 | 8702 ft | 246 kts | 97° |
| 2026-05-06 00:41 | 43.37568 | 6.65930 | 8426 ft | 235 kts | 77° |
| 2026-05-06 00:41 | 43.38210 | 6.67970 | 8177 ft | 232 kts | 61° |
| 2026-05-06 00:41 | 43.39073 | 6.69827 | 7960 ft | 230 kts | 58° |
| 2026-05-06 00:42 | 43.39963 | 6.71659 | 7717 ft | 231 kts | 58° |
| 2026-05-06 00:42 | 43.40866 | 6.73513 | 7461 ft | 235 kts | 58° |
| 2026-05-06 00:42 | 43.41780 | 6.75405 | 7197 ft | 237 kts | 58° |
| 2026-05-06 00:42 | 43.42681 | 6.77291 | 6934 ft | 233 kts | 59° |
| 2026-05-06 00:43 | 43.43563 | 6.79145 | 6650 ft | 230 kts | 58° |
| 2026-05-06 00:43 | 43.44429 | 6.80975 | 6404 ft | 228 kts | 59° |
| 2026-05-06 00:43 | 43.45292 | 6.82800 | 6165 ft | 227 kts | 58° |
| 2026-05-06 00:43 | 43.46021 | 6.84706 | 5892 ft | 224 kts | 77° |
| 2026-05-06 00:44 | 43.46276 | 6.86761 | 5669 ft | 213 kts | 85° |
| 2026-05-06 00:44 | 43.46440 | 6.88759 | 5437 ft | 206 kts | 86° |
| 2026-05-06 00:44 | 43.46598 | 6.90656 | 5363 ft | 196 kts | 86° |
| 2026-05-06 00:44 | 43.46761 | 6.92534 | 5109 ft | 196 kts | 85° |
| 2026-05-06 00:45 | 43.46939 | 6.94380 | 4894 ft | 193 kts | 79° |
| 2026-05-06 00:45 | 43.47609 | 6.95943 | 4684 ft | 191 kts | 47° |
| 2026-05-06 00:45 | 43.48503 | 6.97274 | 4493 ft | 193 kts | 49° |
| 2026-05-06 00:45 | 43.49438 | 6.98657 | 4285 ft | 196 kts | 47° |
| 2026-05-06 00:46 | 43.50364 | 6.99973 | 4107 ft | 193 kts | 47° |
| 2026-05-06 00:46 | 43.51307 | 7.01287 | 3850 ft | 192 kts | 47° |
| 2026-05-06 00:46 | 43.52244 | 7.02584 | 3600 ft | 190 kts | 46° |
| 2026-05-06 00:46 | 43.53175 | 7.03869 | 3351 ft | 189 kts | 46° |
| 2026-05-06 00:47 | 43.54102 | 7.05147 | 3103 ft | 188 kts | 46° |
| 2026-05-06 00:47 | 43.55025 | 7.06419 | 2853 ft | 187 kts | 46° |
| 2026-05-06 00:47 | 43.55937 | 7.07677 | 2604 ft | 184 kts | 46° |
| 2026-05-06 00:47 | 43.56829 | 7.08906 | 2379 ft | 179 kts | 46° |
| 2026-05-06 00:48 | 43.57696 | 7.10101 | 2148 ft | 174 kts | 46° |
| 2026-05-06 00:48 | 43.58549 | 7.11274 | 1900 ft | 172 kts | 46° |
| 2026-05-06 00:48 | 43.59377 | 7.12415 | 1684 ft | 166 kts | 46° |
| 2026-05-06 00:48 | 43.60171 | 7.13508 | 1441 ft | 156 kts | 46° |
| 2026-05-06 00:49 | 43.60920 | 7.14539 | 1254 ft | 149 kts | 46° |
| 2026-05-06 00:49 | 43.61652 | 7.15546 | 1091 ft | 145 kts | 46° |
| 2026-05-06 00:49 | 43.62337 | 7.16488 | 890 ft | 132 kts | 46° |
| 2026-05-06 00:49 | 43.62970 | 7.17362 | 711 ft | 127 kts | 46° |
| 2026-05-06 00:50 | 43.63594 | 7.18222 | 544 ft | 127 kts | 46° |
| 2026-05-06 00:50 | 43.64223 | 7.19086 | 374 ft | 127 kts | 45° |
| 2026-05-06 00:50 | 43.64836 | 7.19928 | 207 ft | 126 kts | 45° |
| 2026-05-06 00:50 | 43.65455 | 7.20780 | 30 ft | 119 kts | 44° |
| 2026-05-06 00:51 | 43.65965 | 7.21480 | 18 ft | 77 kts | 44° |
| 2026-05-06 00:51 | 43.66152 | 7.21730 | 19 ft | 25 kts | 31° |
| 2026-05-06 00:51 | 43.66295 | 7.21640 | 16 ft | 24 kts | 316° |
| 2026-05-06 00:51 | 43.66377 | 7.21500 | 18 ft | 17 kts | 297° |
| 2026-05-06 00:52 | 43.66399 | 7.21373 | 18 ft | 11 kts | 269° |
| 2026-05-06 00:52 | 43.66426 | 7.21331 | 19 ft | 0 kts | 334° |
| 2026-05-06 01:01 | 43.66381 | 7.21362 | 18 ft | 0 kts | 334° |
| 2026-05-06 01:01 | 43.66344 | 7.21387 | 16 ft | 0 kts | 334° |